sensor_id;sensor_type;location;lat;lon;timestamp;P1;durP1;ratioP1;P2;durP2;ratioP2
1975;SDS011;988;48.016;7.800;2022-10-22T00:01:31;5.10;;;4.90;;
1975;SDS011;988;48.016;7.800;2022-10-22T00:03:57;5.03;;;4.83;;
1975;SDS011;988;48.016;7.800;2022-10-22T00:06:23;5.63;;;5.33;;
1975;SDS011;988;48.016;7.800;2022-10-22T00:08:50;5.53;;;5.20;;
1975;SDS011;988;48.016;7.800;2022-10-22T00:11:17;5.90;;;5.30;;
1975;SDS011;988;48.016;7.800;2022-10-22T00:13:44;4.87;;;4.67;;
1975;SDS011;988;48.016;7.800;2022-10-22T00:16:11;5.13;;;4.93;;
1975;SDS011;988;48.016;7.800;2022-10-22T00:18:37;5.00;;;4.80;;
1975;SDS011;988;48.016;7.800;2022-10-22T00:21:04;4.73;;;4.43;;
1975;SDS011;988;48.016;7.800;2022-10-22T00:23:30;6.03;;;4.40;;
1975;SDS011;988;48.016;7.800;2022-10-22T00:25:56;8.10;;;5.27;;
1975;SDS011;988;48.016;7.800;2022-10-22T00:28:22;5.00;;;4.80;;
1975;SDS011;988;48.016;7.800;2022-10-22T00:30:53;6.20;;;5.77;;
1975;SDS011;988;48.016;7.800;2022-10-22T00:33:23;5.50;;;5.20;;
1975;SDS011;988;48.016;7.800;2022-10-22T00:35:49;6.57;;;5.97;;
1975;SDS011;988;48.016;7.800;2022-10-22T00:38:14;6.40;;;6.10;;
1975;SDS011;988;48.016;7.800;2022-10-22T00:40:40;6.63;;;6.13;;
1975;SDS011;988;48.016;7.800;2022-10-22T00:43:09;6.47;;;6.07;;
1975;SDS011;988;48.016;7.800;2022-10-22T00:45:38;6.17;;;5.87;;
1975;SDS011;988;48.016;7.800;2022-10-22T00:48:14;6.97;;;6.37;;
1975;SDS011;988;48.016;7.800;2022-10-22T00:53:21;6.97;;;6.50;;
1975;SDS011;988;48.016;7.800;2022-10-22T00:55:54;7.00;;;6.60;;
1975;SDS011;988;48.016;7.800;2022-10-22T00:58:21;6.57;;;6.13;;
1975;SDS011;988;48.016;7.800;2022-10-22T01:00:50;6.80;;;6.50;;
1975;SDS011;988;48.016;7.800;2022-10-22T01:03:16;6.37;;;5.90;;
1975;SDS011;988;48.016;7.800;2022-10-22T01:05:42;6.43;;;6.13;;
1975;SDS011;988;48.016;7.800;2022-10-22T01:08:18;6.27;;;5.87;;
1975;SDS011;988;48.016;7.800;2022-10-22T01:21:43;4.60;;;4.40;;
1975;SDS011;988;48.016;7.800;2022-10-22T01:27:11;6.13;;;4.30;;
1975;SDS011;988;48.016;7.800;2022-10-22T01:29:53;4.90;;;4.60;;
1975;SDS011;988;48.016;7.800;2022-10-22T01:32:47;5.20;;;4.80;;
1975;SDS011;988;48.016;7.800;2022-10-22T01:35:16;5.07;;;4.80;;
1975;SDS011;988;48.016;7.800;2022-10-22T01:37:51;6.13;;;5.73;;
1975;SDS011;988;48.016;7.800;2022-10-22T01:40:20;6.40;;;5.80;;
1975;SDS011;988;48.016;7.800;2022-10-22T01:45:43;6.33;;;5.77;;
1975;SDS011;988;48.016;7.800;2022-10-22T01:51:06;7.00;;;6.50;;
1975;SDS011;988;48.016;7.800;2022-10-22T02:04:19;5.50;;;5.10;;
1975;SDS011;988;48.016;7.800;2022-10-22T02:06:49;5.70;;;5.30;;
1975;SDS011;988;48.016;7.800;2022-10-22T02:09:17;5.67;;;5.37;;
1975;SDS011;988;48.016;7.800;2022-10-22T02:11:45;6.00;;;5.57;;
1975;SDS011;988;48.016;7.800;2022-10-22T02:14:13;6.73;;;6.13;;
1975;SDS011;988;48.016;7.800;2022-10-22T02:16:43;6.50;;;6.13;;
1975;SDS011;988;48.016;7.800;2022-10-22T02:22:02;7.33;;;6.57;;
1975;SDS011;988;48.016;7.800;2022-10-22T02:24:28;7.23;;;6.80;;
1975;SDS011;988;48.016;7.800;2022-10-22T02:27:02;7.57;;;6.90;;
1975;SDS011;988;48.016;7.800;2022-10-22T02:29:54;7.73;;;7.10;;
1975;SDS011;988;48.016;7.800;2022-10-22T02:35:25;7.67;;;7.27;;
1975;SDS011;988;48.016;7.800;2022-10-22T02:37:53;8.17;;;7.67;;
1975;SDS011;988;48.016;7.800;2022-10-22T02:40:21;7.57;;;7.07;;
1975;SDS011;988;48.016;7.800;2022-10-22T02:42:48;6.63;;;6.27;;
1975;SDS011;988;48.016;7.800;2022-10-22T02:45:15;6.70;;;6.30;;
1975;SDS011;988;48.016;7.800;2022-10-22T02:47:42;7.17;;;6.50;;
1975;SDS011;988;48.016;7.800;2022-10-22T02:50:08;7.70;;;7.10;;
1975;SDS011;988;48.016;7.800;2022-10-22T02:52:34;6.93;;;6.43;;
1975;SDS011;988;48.016;7.800;2022-10-22T02:54:59;7.90;;;7.20;;
1975;SDS011;988;48.016;7.800;2022-10-22T02:57:25;7.67;;;6.87;;
1975;SDS011;988;48.016;7.800;2022-10-22T02:59:51;8.40;;;7.43;;
1975;SDS011;988;48.016;7.800;2022-10-22T03:02:16;8.37;;;7.77;;
1975;SDS011;988;48.016;7.800;2022-10-22T03:04:42;9.03;;;8.30;;
1975;SDS011;988;48.016;7.800;2022-10-22T03:07:08;9.63;;;8.27;;
1975;SDS011;988;48.016;7.800;2022-10-22T03:09:34;9.43;;;8.73;;
1975;SDS011;988;48.016;7.800;2022-10-22T03:11:59;10.20;;;9.30;;
1975;SDS011;988;48.016;7.800;2022-10-22T03:14:25;10.17;;;9.10;;
1975;SDS011;988;48.016;7.800;2022-10-22T03:16:51;9.57;;;8.73;;
1975;SDS011;988;48.016;7.800;2022-10-22T03:19:16;10.37;;;9.37;;
1975;SDS011;988;48.016;7.800;2022-10-22T03:21:52;12.20;;;9.67;;
1975;SDS011;988;48.016;7.800;2022-10-22T03:24:22;9.93;;;8.97;;
1975;SDS011;988;48.016;7.800;2022-10-22T03:27:09;11.23;;;10.07;;
1975;SDS011;988;48.016;7.800;2022-10-22T03:29:37;12.53;;;10.13;;
1975;SDS011;988;48.016;7.800;2022-10-22T03:32:04;12.70;;;10.20;;
1975;SDS011;988;48.016;7.800;2022-10-22T03:34:30;11.20;;;10.10;;
1975;SDS011;988;48.016;7.800;2022-10-22T03:36:56;10.47;;;9.37;;
1975;SDS011;988;48.016;7.800;2022-10-22T03:39:23;11.60;;;10.40;;
1975;SDS011;988;48.016;7.800;2022-10-22T03:41:50;12.17;;;10.93;;
1975;SDS011;988;48.016;7.800;2022-10-22T03:44:17;16.47;;;10.33;;
1975;SDS011;988;48.016;7.800;2022-10-22T03:46:43;12.70;;;10.00;;
1975;SDS011;988;48.016;7.800;2022-10-22T03:49:09;13.47;;;11.33;;
1975;SDS011;988;48.016;7.800;2022-10-22T03:51:35;11.63;;;10.27;;
1975;SDS011;988;48.016;7.800;2022-10-22T03:54:01;12.37;;;10.23;;
1975;SDS011;988;48.016;7.800;2022-10-22T03:56:27;15.43;;;10.83;;
1975;SDS011;988;48.016;7.800;2022-10-22T03:58:54;15.50;;;11.17;;
1975;SDS011;988;48.016;7.800;2022-10-22T04:01:21;12.10;;;10.80;;
1975;SDS011;988;48.016;7.800;2022-10-22T04:03:48;12.60;;;11.03;;
1975;SDS011;988;48.016;7.800;2022-10-22T04:06:14;12.00;;;10.37;;
1975;SDS011;988;48.016;7.800;2022-10-22T04:08:40;13.57;;;12.27;;
1975;SDS011;988;48.016;7.800;2022-10-22T04:11:08;12.70;;;11.50;;
1975;SDS011;988;48.016;7.800;2022-10-22T04:13:34;12.40;;;11.30;;
1975;SDS011;988;48.016;7.800;2022-10-22T04:16:13;18.20;;;12.80;;
1975;SDS011;988;48.016;7.800;2022-10-22T04:18:41;14.00;;;12.70;;
1975;SDS011;988;48.016;7.800;2022-10-22T04:21:08;14.23;;;12.83;;
1975;SDS011;988;48.016;7.800;2022-10-22T04:23:36;12.90;;;11.90;;
1975;SDS011;988;48.016;7.800;2022-10-22T04:26:03;15.07;;;11.97;;
1975;SDS011;988;48.016;7.800;2022-10-22T04:28:30;14.00;;;12.70;;
1975;SDS011;988;48.016;7.800;2022-10-22T04:30:57;13.33;;;12.10;;
1975;SDS011;988;48.016;7.800;2022-10-22T04:33:22;13.57;;;11.17;;
1975;SDS011;988;48.016;7.800;2022-10-22T04:35:48;12.63;;;10.57;;
1975;SDS011;988;48.016;7.800;2022-10-22T04:38:14;12.30;;;11.20;;
1975;SDS011;988;48.016;7.800;2022-10-22T04:40:39;13.93;;;11.40;;
1975;SDS011;988;48.016;7.800;2022-10-22T04:43:05;10.83;;;9.83;;
1975;SDS011;988;48.016;7.800;2022-10-22T04:45:34;27.10;;;24.20;;
1975;SDS011;988;48.016;7.800;2022-10-22T04:48:00;17.60;;;15.00;;
1975;SDS011;988;48.016;7.800;2022-10-22T04:50:26;16.70;;;12.13;;
1975;SDS011;988;48.016;7.800;2022-10-22T04:52:52;12.10;;;10.87;;
1975;SDS011;988;48.016;7.800;2022-10-22T04:55:17;14.53;;;10.27;;
1975;SDS011;988;48.016;7.800;2022-10-22T04:57:43;10.73;;;9.73;;
1975;SDS011;988;48.016;7.800;2022-10-22T05:00:09;11.40;;;10.30;;
1975;SDS011;988;48.016;7.800;2022-10-22T05:02:35;12.83;;;10.97;;
1975;SDS011;988;48.016;7.800;2022-10-22T05:05:02;12.43;;;11.27;;
1975;SDS011;988;48.016;7.800;2022-10-22T05:07:28;11.60;;;10.50;;
1975;SDS011;988;48.016;7.800;2022-10-22T05:09:54;15.73;;;13.17;;
1975;SDS011;988;48.016;7.800;2022-10-22T05:12:20;13.37;;;12.07;;
1975;SDS011;988;48.016;7.800;2022-10-22T05:14:45;12.00;;;10.73;;
1975;SDS011;988;48.016;7.800;2022-10-22T05:17:11;13.33;;;12.00;;
1975;SDS011;988;48.016;7.800;2022-10-22T05:19:36;13.57;;;12.10;;
1975;SDS011;988;48.016;7.800;2022-10-22T05:22:02;13.70;;;12.40;;
1975;SDS011;988;48.016;7.800;2022-10-22T05:24:29;12.20;;;11.00;;
1975;SDS011;988;48.016;7.800;2022-10-22T05:26:57;12.90;;;11.80;;
1975;SDS011;988;48.016;7.800;2022-10-22T05:29:23;13.63;;;11.53;;
1975;SDS011;988;48.016;7.800;2022-10-22T05:31:50;12.70;;;11.30;;
1975;SDS011;988;48.016;7.800;2022-10-22T05:34:16;13.37;;;12.00;;
1975;SDS011;988;48.016;7.800;2022-10-22T05:36:41;12.17;;;10.40;;
1975;SDS011;988;48.016;7.800;2022-10-22T05:39:07;11.20;;;10.20;;
1975;SDS011;988;48.016;7.800;2022-10-22T05:41:33;11.23;;;10.10;;
1975;SDS011;988;48.016;7.800;2022-10-22T05:44:02;9.97;;;9.07;;
1975;SDS011;988;48.016;7.800;2022-10-22T05:46:29;10.60;;;9.60;;
1975;SDS011;988;48.016;7.800;2022-10-22T05:49:00;10.50;;;9.60;;
1975;SDS011;988;48.016;7.800;2022-10-22T05:51:31;12.77;;;10.00;;
1975;SDS011;988;48.016;7.800;2022-10-22T05:53:59;11.43;;;10.33;;
1975;SDS011;988;48.016;7.800;2022-10-22T05:56:27;10.87;;;10.00;;
1975;SDS011;988;48.016;7.800;2022-10-22T05:58:53;11.07;;;10.17;;
1975;SDS011;988;48.016;7.800;2022-10-22T06:01:25;11.17;;;10.27;;
1975;SDS011;988;48.016;7.800;2022-10-22T06:03:53;10.80;;;9.90;;
1975;SDS011;988;48.016;7.800;2022-10-22T06:06:25;13.93;;;10.17;;
1975;SDS011;988;48.016;7.800;2022-10-22T06:11:42;11.40;;;10.40;;
1975;SDS011;988;48.016;7.800;2022-10-22T06:14:08;10.20;;;9.30;;
1975;SDS011;988;48.016;7.800;2022-10-22T06:16:35;17.30;;;11.07;;
1975;SDS011;988;48.016;7.800;2022-10-22T06:19:00;10.50;;;9.50;;
1975;SDS011;988;48.016;7.800;2022-10-22T06:21:27;11.20;;;10.20;;
1975;SDS011;988;48.016;7.800;2022-10-22T06:23:56;14.00;;;10.53;;
1975;SDS011;988;48.016;7.800;2022-10-22T06:26:23;13.90;;;10.50;;
1975;SDS011;988;48.016;7.800;2022-10-22T06:28:49;17.53;;;11.40;;
1975;SDS011;988;48.016;7.800;2022-10-22T06:31:15;11.23;;;10.10;;
1975;SDS011;988;48.016;7.800;2022-10-22T06:33:40;11.33;;;10.13;;
1975;SDS011;988;48.016;7.800;2022-10-22T06:36:17;11.80;;;10.60;;
1975;SDS011;988;48.016;7.800;2022-10-22T06:38:45;11.47;;;10.33;;
1975;SDS011;988;48.016;7.800;2022-10-22T06:41:11;11.60;;;10.60;;
1975;SDS011;988;48.016;7.800;2022-10-22T06:43:39;12.00;;;10.70;;
1975;SDS011;988;48.016;7.800;2022-10-22T06:46:06;12.57;;;10.43;;
1975;SDS011;988;48.016;7.800;2022-10-22T06:48:33;15.23;;;11.77;;
1975;SDS011;988;48.016;7.800;2022-10-22T06:51:06;24.90;;;12.63;;
1975;SDS011;988;48.016;7.800;2022-10-22T06:53:33;14.53;;;13.03;;
1975;SDS011;988;48.016;7.800;2022-10-22T06:56:19;13.40;;;12.13;;
1975;SDS011;988;48.016;7.800;2022-10-22T06:58:48;12.90;;;11.80;;
1975;SDS011;988;48.016;7.800;2022-10-22T07:01:16;15.50;;;11.10;;
1975;SDS011;988;48.016;7.800;2022-10-22T07:03:43;11.77;;;10.77;;
1975;SDS011;988;48.016;7.800;2022-10-22T07:06:10;13.33;;;12.13;;
1975;SDS011;988;48.016;7.800;2022-10-22T07:08:37;11.90;;;11.00;;
1975;SDS011;988;48.016;7.800;2022-10-22T07:11:07;13.13;;;11.93;;
1975;SDS011;988;48.016;7.800;2022-10-22T07:13:33;13.97;;;12.60;;
1975;SDS011;988;48.016;7.800;2022-10-22T07:15:59;15.77;;;14.37;;
1975;SDS011;988;48.016;7.800;2022-10-22T07:18:24;12.70;;;10.70;;
1975;SDS011;988;48.016;7.800;2022-10-22T07:20:50;12.33;;;11.33;;
1975;SDS011;988;48.016;7.800;2022-10-22T07:23:16;13.50;;;12.30;;
1975;SDS011;988;48.016;7.800;2022-10-22T07:25:51;13.20;;;12.30;;
1975;SDS011;988;48.016;7.800;2022-10-22T07:28:25;14.90;;;14.00;;
1975;SDS011;988;48.016;7.800;2022-10-22T07:31:10;19.37;;;17.60;;
1975;SDS011;988;48.016;7.800;2022-10-22T07:33:43;17.73;;;16.43;;
1975;SDS011;988;48.016;7.800;2022-10-22T07:36:10;17.17;;;16.07;;
1975;SDS011;988;48.016;7.800;2022-10-22T07:38:52;15.77;;;14.77;;
1975;SDS011;988;48.016;7.800;2022-10-22T07:41:25;19.83;;;18.20;;
1975;SDS011;988;48.016;7.800;2022-10-22T07:43:58;17.33;;;16.13;;
1975;SDS011;988;48.016;7.800;2022-10-22T07:46:44;19.43;;;17.93;;
1975;SDS011;988;48.016;7.800;2022-10-22T07:49:15;20.37;;;19.10;;
1975;SDS011;988;48.016;7.800;2022-10-22T07:51:41;22.73;;;21.13;;
1975;SDS011;988;48.016;7.800;2022-10-22T07:54:09;19.87;;;18.20;;
1975;SDS011;988;48.016;7.800;2022-10-22T07:56:35;23.80;;;22.40;;
1975;SDS011;988;48.016;7.800;2022-10-22T07:59:17;32.53;;;30.30;;
1975;SDS011;988;48.016;7.800;2022-10-22T08:02:10;35.27;;;33.27;;
1975;SDS011;988;48.016;7.800;2022-10-22T08:04:42;37.50;;;35.00;;
1975;SDS011;988;48.016;7.800;2022-10-22T08:07:10;35.77;;;33.50;;
1975;SDS011;988;48.016;7.800;2022-10-22T08:09:39;34.40;;;32.47;;
1975;SDS011;988;48.016;7.800;2022-10-22T08:12:25;33.63;;;31.83;;
1975;SDS011;988;48.016;7.800;2022-10-22T08:14:50;34.10;;;32.00;;
1975;SDS011;988;48.016;7.800;2022-10-22T08:17:16;37.10;;;33.50;;
1975;SDS011;988;48.016;7.800;2022-10-22T08:19:44;35.83;;;33.50;;
1975;SDS011;988;48.016;7.800;2022-10-22T08:22:13;34.97;;;31.93;;
1975;SDS011;988;48.016;7.800;2022-10-22T08:24:41;35.50;;;33.30;;
1975;SDS011;988;48.016;7.800;2022-10-22T08:27:10;35.40;;;33.33;;
1975;SDS011;988;48.016;7.800;2022-10-22T08:29:39;33.97;;;31.63;;
1975;SDS011;988;48.016;7.800;2022-10-22T08:32:41;34.30;;;32.50;;
1975;SDS011;988;48.016;7.800;2022-10-22T08:35:16;36.17;;;34.20;;
1975;SDS011;988;48.016;7.800;2022-10-22T08:37:44;34.83;;;32.73;;
1975;SDS011;988;48.016;7.800;2022-10-22T08:40:23;36.00;;;33.80;;
1975;SDS011;988;48.016;7.800;2022-10-22T08:48:54;36.33;;;34.33;;
1975;SDS011;988;48.016;7.800;2022-10-22T08:51:27;34.60;;;32.80;;
1975;SDS011;988;48.016;7.800;2022-10-22T09:05:01;34.90;;;33.00;;
1975;SDS011;988;48.016;7.800;2022-10-22T09:07:51;33.60;;;31.63;;
1975;SDS011;988;48.016;7.800;2022-10-22T09:10:19;33.37;;;31.20;;
1975;SDS011;988;48.016;7.800;2022-10-22T09:12:51;35.00;;;32.70;;
1975;SDS011;988;48.016;7.800;2022-10-22T09:15:26;37.93;;;35.47;;
1975;SDS011;988;48.016;7.800;2022-10-22T09:18:01;40.10;;;37.70;;
1975;SDS011;988;48.016;7.800;2022-10-22T09:20:57;37.13;;;33.97;;
1975;SDS011;988;48.016;7.800;2022-10-22T09:24:11;37.30;;;34.97;;
1975;SDS011;988;48.016;7.800;2022-10-22T09:27:15;37.30;;;35.03;;
1975;SDS011;988;48.016;7.800;2022-10-22T09:29:43;37.43;;;35.20;;
1975;SDS011;988;48.016;7.800;2022-10-22T09:32:10;38.27;;;35.87;;
1975;SDS011;988;48.016;7.800;2022-10-22T09:34:45;36.10;;;33.87;;
1975;SDS011;988;48.016;7.800;2022-10-22T09:37:14;36.27;;;34.30;;
1975;SDS011;988;48.016;7.800;2022-10-22T09:39:46;36.70;;;34.70;;
1975;SDS011;988;48.016;7.800;2022-10-22T09:42:17;36.70;;;34.57;;
1975;SDS011;988;48.016;7.800;2022-10-22T09:44:54;35.67;;;33.47;;
1975;SDS011;988;48.016;7.800;2022-10-22T09:50:03;36.23;;;34.13;;
1975;SDS011;988;48.016;7.800;2022-10-22T09:53:03;35.47;;;33.67;;
1975;SDS011;988;48.016;7.800;2022-10-22T09:55:41;38.00;;;36.00;;
1975;SDS011;988;48.016;7.800;2022-10-22T09:58:13;34.83;;;32.73;;
1975;SDS011;988;48.016;7.800;2022-10-22T10:00:40;37.57;;;35.27;;
1975;SDS011;988;48.016;7.800;2022-10-22T10:03:11;34.13;;;32.13;;
1975;SDS011;988;48.016;7.800;2022-10-22T10:05:41;35.77;;;33.87;;
1975;SDS011;988;48.016;7.800;2022-10-22T10:08:11;34.27;;;32.40;;
1975;SDS011;988;48.016;7.800;2022-10-22T10:10:52;32.00;;;30.30;;
1975;SDS011;988;48.016;7.800;2022-10-22T10:19:09;35.77;;;33.77;;
1975;SDS011;988;48.016;7.800;2022-10-22T10:21:54;34.13;;;32.33;;
1975;SDS011;988;48.016;7.800;2022-10-22T10:27:27;33.17;;;31.13;;
1975;SDS011;988;48.016;7.800;2022-10-22T10:30:02;32.03;;;30.10;;
1975;SDS011;988;48.016;7.800;2022-10-22T10:35:28;35.13;;;33.23;;
1975;SDS011;988;48.016;7.800;2022-10-22T10:38:17;34.90;;;32.90;;
1975;SDS011;988;48.016;7.800;2022-10-22T10:41:12;37.47;;;35.23;;
1975;SDS011;988;48.016;7.800;2022-10-22T10:49:41;35.10;;;33.10;;
1975;SDS011;988;48.016;7.800;2022-10-22T10:52:12;36.63;;;34.53;;
1975;SDS011;988;48.016;7.800;2022-10-22T10:54:54;34.07;;;32.23;;
1975;SDS011;988;48.016;7.800;2022-10-22T11:00:21;36.47;;;34.47;;
1975;SDS011;988;48.016;7.800;2022-10-22T11:05:33;36.80;;;34.40;;
1975;SDS011;988;48.016;7.800;2022-10-22T11:08:13;32.43;;;30.73;;
1975;SDS011;988;48.016;7.800;2022-10-22T11:10:49;33.53;;;31.60;;
1975;SDS011;988;48.016;7.800;2022-10-22T11:13:35;34.27;;;32.47;;
1975;SDS011;988;48.016;7.800;2022-10-22T11:19:15;32.50;;;30.83;;
1975;SDS011;988;48.016;7.800;2022-10-22T11:30:14;35.00;;;33.10;;
1975;SDS011;988;48.016;7.800;2022-10-22T11:32:43;35.73;;;33.73;;
1975;SDS011;988;48.016;7.800;2022-10-22T11:35:23;35.93;;;33.83;;
1975;SDS011;988;48.016;7.800;2022-10-22T11:37:55;37.00;;;34.50;;
1975;SDS011;988;48.016;7.800;2022-10-22T11:40:28;38.10;;;36.00;;
1975;SDS011;988;48.016;7.800;2022-10-22T11:43:07;34.23;;;32.03;;
1975;SDS011;988;48.016;7.800;2022-10-22T11:45:40;32.10;;;30.33;;
1975;SDS011;988;48.016;7.800;2022-10-22T11:53:56;34.10;;;32.20;;
1975;SDS011;988;48.016;7.800;2022-10-22T11:56:25;34.33;;;32.40;;
1975;SDS011;988;48.016;7.800;2022-10-22T11:58:53;35.73;;;33.63;;
1975;SDS011;988;48.016;7.800;2022-10-22T12:01:23;35.90;;;33.70;;
1975;SDS011;988;48.016;7.800;2022-10-22T12:06:23;36.20;;;34.10;;
1975;SDS011;988;48.016;7.800;2022-10-22T12:08:52;35.97;;;34.07;;
1975;SDS011;988;48.016;7.800;2022-10-22T12:11:39;33.97;;;32.17;;
1975;SDS011;988;48.016;7.800;2022-10-22T12:16:47;33.43;;;31.73;;
1975;SDS011;988;48.016;7.800;2022-10-22T12:21:58;35.67;;;33.63;;
1975;SDS011;988;48.016;7.800;2022-10-22T12:24:39;35.60;;;33.60;;
1975;SDS011;988;48.016;7.800;2022-10-22T12:27:18;33.70;;;31.90;;
1975;SDS011;988;48.016;7.800;2022-10-22T12:29:52;36.07;;;33.97;;
1975;SDS011;988;48.016;7.800;2022-10-22T12:32:22;34.53;;;32.73;;
1975;SDS011;988;48.016;7.800;2022-10-22T12:35:02;34.27;;;32.33;;
1975;SDS011;988;48.016;7.800;2022-10-22T12:37:34;35.40;;;33.43;;
1975;SDS011;988;48.016;7.800;2022-10-22T12:40:01;36.67;;;34.73;;
1975;SDS011;988;48.016;7.800;2022-10-22T12:42:45;36.90;;;34.90;;
1975;SDS011;988;48.016;7.800;2022-10-22T12:45:14;37.33;;;35.10;;
1975;SDS011;988;48.016;7.800;2022-10-22T12:47:44;35.73;;;33.10;;
1975;SDS011;988;48.016;7.800;2022-10-22T12:50:16;35.03;;;33.23;;
1975;SDS011;988;48.016;7.800;2022-10-22T12:52:44;34.40;;;32.40;;
1975;SDS011;988;48.016;7.800;2022-10-22T12:55:18;33.47;;;31.67;;
1975;SDS011;988;48.016;7.800;2022-10-22T12:57:47;32.23;;;30.33;;
1975;SDS011;988;48.016;7.800;2022-10-22T13:00:24;31.90;;;29.90;;
1975;SDS011;988;48.016;7.800;2022-10-22T13:02:52;25.70;;;24.10;;
1975;SDS011;988;48.016;7.800;2022-10-22T13:07:53;27.23;;;25.63;;
1975;SDS011;988;48.016;7.800;2022-10-22T13:10:31;26.30;;;24.80;;
1975;SDS011;988;48.016;7.800;2022-10-22T13:12:59;26.80;;;25.20;;
1975;SDS011;988;48.016;7.800;2022-10-22T13:18:16;27.03;;;25.43;;
1975;SDS011;988;48.016;7.800;2022-10-22T13:20:54;28.30;;;26.70;;
1975;SDS011;988;48.016;7.800;2022-10-22T13:23:22;26.10;;;24.60;;
1975;SDS011;988;48.016;7.800;2022-10-22T13:25:56;26.57;;;24.93;;
1975;SDS011;988;48.016;7.800;2022-10-22T13:28:25;26.07;;;24.60;;
1975;SDS011;988;48.016;7.800;2022-10-22T13:30:53;25.17;;;23.77;;
1975;SDS011;988;48.016;7.800;2022-10-22T13:33:28;25.07;;;23.60;;
1975;SDS011;988;48.016;7.800;2022-10-22T13:35:58;25.60;;;24.20;;
1975;SDS011;988;48.016;7.800;2022-10-22T13:38:25;25.60;;;24.10;;
1975;SDS011;988;48.016;7.800;2022-10-22T13:40:51;25.43;;;23.83;;
1975;SDS011;988;48.016;7.800;2022-10-22T13:43:17;26.40;;;24.53;;
1975;SDS011;988;48.016;7.800;2022-10-22T13:45:44;26.83;;;24.90;;
1975;SDS011;988;48.016;7.800;2022-10-22T13:48:11;27.67;;;25.73;;
1975;SDS011;988;48.016;7.800;2022-10-22T13:50:40;25.83;;;24.43;;
1975;SDS011;988;48.016;7.800;2022-10-22T13:53:08;26.17;;;24.47;;
1975;SDS011;988;48.016;7.800;2022-10-22T13:55:41;26.23;;;24.70;;
1975;SDS011;988;48.016;7.800;2022-10-22T13:58:09;27.37;;;25.47;;
1975;SDS011;988;48.016;7.800;2022-10-22T14:00:37;26.27;;;24.53;;
1975;SDS011;988;48.016;7.800;2022-10-22T14:03:04;25.97;;;24.40;;
1975;SDS011;988;48.016;7.800;2022-10-22T14:05:34;26.97;;;25.47;;
1975;SDS011;988;48.016;7.800;2022-10-22T14:07:59;25.70;;;24.10;;
1975;SDS011;988;48.016;7.800;2022-10-22T14:10:25;25.30;;;23.90;;
1975;SDS011;988;48.016;7.800;2022-10-22T14:12:51;24.90;;;23.53;;
1975;SDS011;988;48.016;7.800;2022-10-22T14:15:19;25.00;;;23.60;;
1975;SDS011;988;48.016;7.800;2022-10-22T14:17:51;25.43;;;23.70;;
1975;SDS011;988;48.016;7.800;2022-10-22T14:20:21;25.03;;;23.53;;
1975;SDS011;988;48.016;7.800;2022-10-22T14:22:52;25.57;;;23.87;;
1975;SDS011;988;48.016;7.800;2022-10-22T14:25:20;24.17;;;22.77;;
1975;SDS011;988;48.016;7.800;2022-10-22T14:27:47;24.47;;;23.07;;
1975;SDS011;988;48.016;7.800;2022-10-22T14:30:21;24.83;;;23.43;;
1975;SDS011;988;48.016;7.800;2022-10-22T14:32:48;23.80;;;22.50;;
1975;SDS011;988;48.016;7.800;2022-10-22T14:35:15;24.57;;;23.07;;
1975;SDS011;988;48.016;7.800;2022-10-22T14:37:43;26.53;;;24.93;;
1975;SDS011;988;48.016;7.800;2022-10-22T14:40:09;24.70;;;23.30;;
1975;SDS011;988;48.016;7.800;2022-10-22T14:42:41;29.20;;;27.50;;
1975;SDS011;988;48.016;7.800;2022-10-22T14:45:12;30.80;;;28.63;;
1975;SDS011;988;48.016;7.800;2022-10-22T14:47:42;30.40;;;28.50;;
1975;SDS011;988;48.016;7.800;2022-10-22T14:50:08;31.77;;;29.97;;
1975;SDS011;988;48.016;7.800;2022-10-22T14:52:34;31.03;;;29.33;;
1975;SDS011;988;48.016;7.800;2022-10-22T14:55:00;29.87;;;28.07;;
1975;SDS011;988;48.016;7.800;2022-10-22T14:57:25;30.53;;;28.90;;
1975;SDS011;988;48.016;7.800;2022-10-22T14:59:51;31.13;;;29.40;;
1975;SDS011;988;48.016;7.800;2022-10-22T15:02:18;30.70;;;29.03;;
1975;SDS011;988;48.016;7.800;2022-10-22T15:04:45;30.20;;;28.60;;
1975;SDS011;988;48.016;7.800;2022-10-22T15:07:14;31.73;;;29.83;;
1975;SDS011;988;48.016;7.800;2022-10-22T15:09:40;31.00;;;29.40;;
1975;SDS011;988;48.016;7.800;2022-10-22T15:12:05;30.57;;;28.97;;
1975;SDS011;988;48.016;7.800;2022-10-22T15:14:31;30.73;;;28.77;;
1975;SDS011;988;48.016;7.800;2022-10-22T15:16:57;29.47;;;27.73;;
1975;SDS011;988;48.016;7.800;2022-10-22T15:19:23;29.50;;;28.00;;
1975;SDS011;988;48.016;7.800;2022-10-22T15:21:49;30.47;;;28.70;;
1975;SDS011;988;48.016;7.800;2022-10-22T15:24:15;30.87;;;29.27;;
1975;SDS011;988;48.016;7.800;2022-10-22T15:26:41;29.70;;;27.93;;
1975;SDS011;988;48.016;7.800;2022-10-22T15:29:06;29.33;;;27.50;;
1975;SDS011;988;48.016;7.800;2022-10-22T15:34:22;29.67;;;28.03;;
1975;SDS011;988;48.016;7.800;2022-10-22T15:36:50;30.00;;;28.10;;
1975;SDS011;988;48.016;7.800;2022-10-22T15:39:17;28.93;;;27.10;;
1975;SDS011;988;48.016;7.800;2022-10-22T15:41:43;29.73;;;28.03;;
1975;SDS011;988;48.016;7.800;2022-10-22T15:44:15;29.67;;;27.90;;
1975;SDS011;988;48.016;7.800;2022-10-22T15:46:43;29.17;;;27.47;;
1975;SDS011;988;48.016;7.800;2022-10-22T15:49:08;28.77;;;26.77;;
1975;SDS011;988;48.016;7.800;2022-10-22T15:51:34;28.10;;;26.57;;
1975;SDS011;988;48.016;7.800;2022-10-22T15:54:00;29.07;;;27.03;;
1975;SDS011;988;48.016;7.800;2022-10-22T15:56:26;27.53;;;25.73;;
1975;SDS011;988;48.016;7.800;2022-10-22T15:58:53;27.50;;;25.87;;
1975;SDS011;988;48.016;7.800;2022-10-22T16:01:21;28.90;;;27.10;;
1975;SDS011;988;48.016;7.800;2022-10-22T16:03:48;28.83;;;27.23;;
1975;SDS011;988;48.016;7.800;2022-10-22T16:06:17;27.40;;;26.00;;
1975;SDS011;988;48.016;7.800;2022-10-22T16:08:43;27.00;;;25.53;;
1975;SDS011;988;48.016;7.800;2022-10-22T16:11:09;27.80;;;26.00;;
1975;SDS011;988;48.016;7.800;2022-10-22T16:13:34;26.63;;;25.13;;
1975;SDS011;988;48.016;7.800;2022-10-22T16:16:03;27.40;;;25.90;;
1975;SDS011;988;48.016;7.800;2022-10-22T16:18:31;26.93;;;25.00;;
1975;SDS011;988;48.016;7.800;2022-10-22T16:20:57;26.93;;;24.50;;
1975;SDS011;988;48.016;7.800;2022-10-22T16:23:23;26.43;;;25.00;;
1975;SDS011;988;48.016;7.800;2022-10-22T16:25:48;27.93;;;26.13;;
1975;SDS011;988;48.016;7.800;2022-10-22T16:28:14;28.43;;;26.50;;
1975;SDS011;988;48.016;7.800;2022-10-22T16:30:40;26.60;;;24.33;;
1975;SDS011;988;48.016;7.800;2022-10-22T16:33:06;25.73;;;24.13;;
1975;SDS011;988;48.016;7.800;2022-10-22T16:35:33;24.97;;;23.10;;
1975;SDS011;988;48.016;7.800;2022-10-22T16:38:03;23.83;;;22.37;;
1975;SDS011;988;48.016;7.800;2022-10-22T16:40:29;25.37;;;23.50;;
1975;SDS011;988;48.016;7.800;2022-10-22T16:42:54;24.40;;;22.90;;
1975;SDS011;988;48.016;7.800;2022-10-22T16:45:20;24.50;;;22.80;;
1975;SDS011;988;48.016;7.800;2022-10-22T16:47:45;23.50;;;21.90;;
1975;SDS011;988;48.016;7.800;2022-10-22T16:50:12;23.80;;;22.03;;
1975;SDS011;988;48.016;7.800;2022-10-22T16:52:38;24.20;;;22.00;;
1975;SDS011;988;48.016;7.800;2022-10-22T16:55:03;23.43;;;22.03;;
1975;SDS011;988;48.016;7.800;2022-10-22T16:57:29;22.80;;;21.40;;
1975;SDS011;988;48.016;7.800;2022-10-22T16:59:55;22.50;;;21.10;;
1975;SDS011;988;48.016;7.800;2022-10-22T17:02:21;23.03;;;21.40;;
1975;SDS011;988;48.016;7.800;2022-10-22T17:04:47;22.60;;;21.40;;
1975;SDS011;988;48.016;7.800;2022-10-22T17:07:12;21.70;;;20.40;;
1975;SDS011;988;48.016;7.800;2022-10-22T17:09:38;22.33;;;20.97;;
1975;SDS011;988;48.016;7.800;2022-10-22T17:12:03;22.53;;;21.13;;
1975;SDS011;988;48.016;7.800;2022-10-22T17:14:29;22.33;;;20.50;;
1975;SDS011;988;48.016;7.800;2022-10-22T17:16:55;22.73;;;21.53;;
1975;SDS011;988;48.016;7.800;2022-10-22T17:19:20;23.43;;;21.70;;
1975;SDS011;988;48.016;7.800;2022-10-22T17:21:47;21.87;;;20.27;;